Time;durP1;ratioP1;P1;durP2;ratioP2;P2;SDS_P1;SDS_P2;PMS_P1;PMS_P2;Temp;Humidity;BMP_temperature;BMP_pressure;BME280_temperature;BME280_humidity;BME280_pressure;Samples;Min_cycle;Max_cycle;Signal;HPM_P1;HPM_P2
2021/07/18 00:01:10;;;;;;;6.82;3.80;;;;;;;15.05;100.00;101954.53;5079858;28;20424;-64
2021/07/18 00:03:38;;;;;;;8.43;3.50;;;;;;;15.04;100.00;101958.22;5081202;28;20051;-65
2021/07/18 00:06:06;;;;;;;10.20;3.38;;;;;;;15.15;100.00;101945.31;5087166;28;20036;-64
2021/07/18 00:08:33;;;;;;;8.68;4.05;;;;;;;14.94;100.00;101948.47;5078536;28;20048;-65
2021/07/18 00:11:01;;;;;;;7.95;4.53;;;;;;;14.95;100.00;101952.00;5079741;28;20069;-65
2021/07/18 00:13:29;;;;;;;6.65;3.72;;;;;;;14.85;100.00;101956.69;5084090;28;20122;-65
2021/07/18 00:15:59;;;;;;;8.48;4.13;;;;;;;14.91;100.00;101947.94;5081799;28;20047;-65
2021/07/18 00:18:27;;;;;;;8.70;3.92;;;;;;;14.89;100.00;101955.34;5081861;28;20110;-64
2021/07/18 00:20:55;;;;;;;6.43;3.55;;;;;;;14.87;100.00;101949.28;5084218;28;20044;-64
2021/07/18 00:23:23;;;;;;;6.85;3.88;;;;;;;14.76;100.00;101951.28;5077872;28;20247;-65
2021/07/18 00:25:51;;;;;;;8.05;4.07;;;;;;;14.78;100.00;101957.31;5082304;28;20113;-65
2021/07/18 00:28:18;;;;;;;11.07;4.35;;;;;;;14.65;100.00;101950.75;5081712;28;20048;-64
2021/07/18 00:30:46;;;;;;;6.97;3.35;;;;;;;14.67;100.00;101952.22;5081016;28;20044;-64
2021/07/18 00:33:16;;;;;;;6.97;3.80;;;;;;;14.68;100.00;101956.63;5081037;28;20040;-64
2021/07/18 00:35:44;;;;;;;8.20;4.25;;;;;;;14.72;100.00;101949.09;5082999;28;20320;-64
2021/07/18 00:38:12;;;;;;;6.80;4.13;;;;;;;14.73;100.00;101946.22;5082520;28;20044;-64
2021/07/18 00:40:40;;;;;;;10.02;4.35;;;;;;;14.59;100.00;101944.13;5079204;28;20052;-65
2021/07/18 00:43:08;;;;;;;7.25;3.97;;;;;;;14.56;100.00;101945.28;5083274;28;20055;-65
2021/07/18 00:45:36;;;;;;;9.20;4.38;;;;;;;14.54;100.00;101941.91;5083889;28;20032;-65
2021/07/18 00:48:05;;;;;;;7.18;3.85;;;;;;;14.57;100.00;101946.13;5083752;28;20054;-65
2021/07/18 00:50:34;;;;;;;8.60;4.95;;;;;;;14.55;100.00;101938.22;5080062;28;20051;-65
2021/07/18 00:53:03;;;;;;;8.40;4.28;;;;;;;14.49;100.00;101951.47;5078235;28;20058;-65
2021/07/18 00:55:31;;;;;;;12.45;5.40;;;;;;;14.36;100.00;101947.41;5084032;28;20044;-65
2021/07/18 00:57:59;;;;;;;8.82;5.25;;;;;;;14.35;100.00;101945.69;5078707;28;20044;-65
2021/07/18 01:00:27;;;;;;;9.40;4.72;;;;;;;14.32;100.00;101950.53;5079044;28;20045;-65
2021/07/18 01:02:55;;;;;;;11.32;5.22;;;;;;;14.33;100.00;101945.03;5084801;28;20435;-65
2021/07/18 01:05:23;;;;;;;9.35;5.35;;;;;;;14.38;100.00;101952.59;5080755;28;20052;-64
2021/07/18 01:07:52;;;;;;;11.98;5.85;;;;;;;14.52;100.00;101948.47;5085319;28;20093;-64
2021/07/18 01:10:20;;;;;;;13.18;5.82;;;;;;;14.44;100.00;101947.44;5081011;28;20048;-65
2021/07/18 01:12:49;;;;;;;10.40;5.13;;;;;;;14.44;100.00;101946.56;5081494;28;20313;-65
2021/07/18 01:15:35;;;;;;;13.82;6.88;;;;;;;14.50;100.00;101945.09;5082484;28;20040;-65
2021/07/18 01:18:04;;;;;;;10.18;5.80;;;;;;;14.42;100.00;101949.44;5077954;28;20052;-65
2021/07/18 01:20:33;;;;;;;12.05;5.78;;;;;;;14.45;100.00;101942.91;5082926;28;20400;-65
2021/07/18 01:23:03;;;;;;;12.32;6.28;;;;;;;14.46;100.00;101944.59;5082675;28;20105;-67
2021/07/18 01:25:31;;;;;;;13.93;6.30;;;;;;;14.47;100.00;101943.56;5085275;28;20047;-66
2021/07/18 01:27:59;;;;;;;14.40;5.97;;;;;;;14.34;100.00;101941.31;5081925;28;20055;-66
2021/07/18 01:30:27;;;;;;;12.60;6.28;;;;;;;14.29;100.00;101938.28;5083202;28;20045;-65
2021/07/18 01:32:55;;;;;;;11.82;5.40;;;;;;;14.16;100.00;101933.38;5083580;28;20382;-66
2021/07/18 01:35:23;;;;;;;13.13;6.65;;;;;;;14.30;100.00;101939.97;5083931;28;20049;-66
2021/07/18 01:37:51;;;;;;;16.42;6.90;;;;;;;14.21;100.00;101936.38;5083652;28;20040;-65
2021/07/18 01:40:20;;;;;;;13.73;6.78;;;;;;;14.24;100.00;101940.59;5083242;28;20036;-65
2021/07/18 01:42:48;;;;;;;15.55;6.70;;;;;;;14.25;100.00;101928.88;5082268;28;20075;-65
2021/07/18 01:45:16;;;;;;;17.17;8.93;;;;;;;14.29;100.00;101924.88;5083515;28;20044;-65
2021/07/18 01:47:46;;;;;;;15.52;8.20;;;;;;;14.26;100.00;101928.72;5084154;28;20250;-65
2021/07/18 01:50:14;;;;;;;15.88;7.93;;;;;;;14.14;100.00;101934.53;5084322;28;20036;-66
2021/07/18 01:52:42;;;;;;;17.83;8.35;;;;;;;14.27;100.00;101924.16;5080559;28;20351;-66
2021/07/18 01:55:12;;;;;;;16.08;8.85;;;;;;;14.12;100.00;101921.25;5082336;28;20048;-65
2021/07/18 01:57:41;;;;;;;12.77;8.52;;;;;;;14.12;100.00;101916.72;5082066;28;20048;-66
2021/07/18 02:00:12;;;;;;;22.90;10.18;;;;;;;14.17;100.00;101920.75;5081630;28;20048;-65
2021/07/18 02:02:42;;;;;;;18.67;9.95;;;;;;;14.05;100.00;101921.03;5084580;28;20044;-66
2021/07/18 02:05:12;;;;;;;15.15;9.15;;;;;;;14.05;100.00;101922.91;5084789;28;20047;-65
2021/07/18 02:07:40;;;;;;;15.90;8.85;;;;;;;14.02;100.00;101915.13;5081404;28;20052;-65
2021/07/18 02:10:10;;;;;;;23.80;9.63;;;;;;;14.06;100.00;101906.63;5084032;28;20069;-65
2021/07/18 02:12:38;;;;;;;20.27;10.52;;;;;;;14.02;100.00;101910.63;5079702;28;20055;-66
2021/07/18 02:15:09;;;;;;;20.38;10.65;;;;;;;14.02;100.00;101916.00;5082357;28;20049;-66
2021/07/18 02:17:38;;;;;;;25.05;12.43;;;;;;;13.95;100.00;101910.41;5083503;28;20103;-65
2021/07/18 02:20:08;;;;;;;25.15;11.95;;;;;;;13.91;100.00;101911.72;5080212;28;20052;-66
2021/07/18 02:22:43;;;;;;;22.88;12.70;;;;;;;13.98;100.00;101920.00;5080874;28;20040;-66
2021/07/18 02:25:13;;;;;;;24.73;11.55;;;;;;;13.99;100.00;101910.09;5081423;28;20089;-66
2021/07/18 02:27:41;;;;;;;29.33;13.43;;;;;;;14.25;100.00;101912.75;5082606;28;20036;-66
2021/07/18 02:30:13;;;;;;;24.17;12.95;;;;;;;14.18;100.00;101919.78;5081314;28;20039;-65
2021/07/18 02:32:42;;;;;;;25.15;13.70;;;;;;;14.18;100.00;101917.09;5079820;28;20113;-65
2021/07/18 02:35:12;;;;;;;26.38;13.18;;;;;;;14.11;100.00;101917.69;5080031;28;20044;-65
2021/07/18 02:37:40;;;;;;;21.23;11.75;;;;;;;14.15;100.00;101909.31;5082104;28;20044;-65
2021/07/18 02:40:11;;;;;;;25.05;13.70;;;;;;;14.06;100.00;101913.81;5080211;28;20226;-65
2021/07/18 02:42:39;;;;;;;23.77;14.10;;;;;;;13.98;100.00;101914.63;5081458;28;20048;-65
2021/07/18 02:45:10;;;;;;;24.77;12.32;;;;;;;13.98;100.00;101917.31;5082584;28;20048;-67
2021/07/18 02:47:39;;;;;;;24.83;15.23;;;;;;;13.92;100.00;101920.59;5082802;28;20040;-65
2021/07/18 02:50:08;;;;;;;28.92;14.77;;;;;;;13.87;100.00;101917.56;5081432;28;20396;-66
2021/07/18 02:52:36;;;;;;;28.10;14.32;;;;;;;13.81;100.00;101910.13;5078138;28;20051;-66
2021/07/18 02:55:04;;;;;;;27.33;14.68;;;;;;;13.89;100.00;101923.63;5080397;28;20052;-66
2021/07/18 02:57:32;;;;;;;31.77;16.30;;;;;;;13.91;100.00;101910.88;5082624;28;20378;-66
2021/07/18 03:00:00;;;;;;;29.55;15.60;;;;;;;13.80;100.00;101911.97;5082042;28;20036;-65
2021/07/18 03:02:30;;;;;;;29.77;15.55;;;;;;;13.88;100.00;101908.53;5080510;28;20435;-65
2021/07/18 03:04:58;;;;;;;30.45;16.52;;;;;;;13.84;100.00;101913.34;5079364;28;20056;-66
2021/07/18 03:07:25;;;;;;;32.60;16.08;;;;;;;13.81;100.00;101908.31;5082308;28;20052;-66
2021/07/18 03:09:53;;;;;;;28.88;16.75;;;;;;;14.00;100.00;101906.41;5081045;28;20044;-66
2021/07/18 03:12:21;;;;;;;32.15;17.40;;;;;;;13.94;100.00;101897.13;5084001;28;20048;-66
2021/07/18 03:14:49;;;;;;;36.47;17.10;;;;;;;13.94;100.00;101897.13;5085580;28;20090;-66
2021/07/18 03:17:17;;;;;;;27.63;16.30;;;;;;;13.85;100.00;101892.72;5086487;28;20044;-66
2021/07/18 03:19:47;;;;;;;32.25;18.38;;;;;;;13.89;100.00;101899.44;5086619;28;20432;-66
2021/07/18 03:22:15;;;;;;;28.73;16.00;;;;;;;14.03;100.00;101898.03;5082856;28;20049;-66
2021/07/18 03:24:43;;;;;;;37.88;19.52;;;;;;;13.98;100.00;101895.81;5086451;28;20378;-65
2021/07/18 03:27:11;;;;;;;32.35;18.23;;;;;;;14.00;100.00;101901.03;5084150;28;20044;-66
2021/07/18 03:29:39;;;;;;;35.47;20.27;;;;;;;14.07;100.00;101904.75;5085985;28;20039;-65
2021/07/18 03:32:08;;;;;;;35.97;18.77;;;;;;;14.02;100.00;101902.56;5082203;28;20070;-66
2021/07/18 03:34:35;;;;;;;34.38;18.65;;;;;;;14.21;100.00;101903.31;5082563;28;20102;-66
2021/07/18 03:37:05;;;;;;;36.65;19.73;;;;;;;14.14;100.00;101897.75;5084721;28;20035;-66
2021/07/18 03:39:33;;;;;;;41.10;21.38;;;;;;;14.10;100.00;101899.94;5081173;28;20040;-66
2021/07/18 03:42:01;;;;;;;40.25;21.30;;;;;;;14.06;100.00;101895.88;5083172;28;20073;-65
2021/07/18 03:44:29;;;;;;;34.78;20.45;;;;;;;14.04;100.00;101903.22;5082272;28;20356;-66
2021/07/18 03:46:57;;;;;;;40.88;21.30;;;;;;;14.11;100.00;101893.53;5086655;28;20110;-66
2021/07/18 03:49:25;;;;;;;40.40;21.58;;;;;;;14.09;100.00;101894.69;5085744;28;20078;-66
2021/07/18 03:51:53;;;;;;;34.25;20.85;;;;;;;14.09;100.00;101890.19;5085260;28;20044;-66
2021/07/18 03:54:22;;;;;;;40.05;22.40;;;;;;;14.15;100.00;101890.53;5084202;28;20040;-65
2021/07/18 03:56:50;;;;;;;44.65;23.25;;;;;;;14.07;100.00;101894.84;5083217;28;20044;-66
2021/07/18 03:59:19;;;;;;;47.10;23.98;;;;;;;14.17;100.00;101896.59;5083285;28;20045;-65
2021/07/18 04:01:47;;;;;;;39.03;22.48;;;;;;;14.16;100.00;101900.25;5082705;28;20097;-65
2021/07/18 04:04:15;;;;;;;45.60;23.08;;;;;;;14.12;100.00;101900.59;5087546;28;20055;-66
2021/07/18 04:06:43;;;;;;;45.80;24.05;;;;;;;14.21;100.00;101897.94;5086018;28;20457;-66
2021/07/18 04:09:11;;;;;;;56.40;27.08;;;;;;;14.09;100.00;101900.06;5083176;28;20040;-66
2021/07/18 04:11:40;;;;;;;44.65;24.55;;;;;;;14.24;100.00;101906.50;5082334;28;20041;-67
2021/07/18 04:14:08;;;;;;;44.22;23.73;;;;;;;14.24;100.00;101903.00;5084892;28;20044;-67
2021/07/18 04:16:36;;;;;;;53.72;26.00;;;;;;;14.11;100.00;101898.91;5084193;28;20054;-66
2021/07/18 04:19:04;;;;;;;45.65;25.70;;;;;;;14.22;100.00;101895.09;5088231;28;20027;-67
2021/07/18 04:21:32;;;;;;;42.22;22.63;;;;;;;14.20;100.00;101896.25;5082414;28;20059;-66
2021/07/18 04:24:00;;;;;;;46.95;22.52;;;;;;;14.14;100.00;101891.53;5085805;28;20363;-66
2021/07/18 04:26:28;;;;;;;47.60;23.33;;;;;;;14.22;100.00;101902.34;5083677;28;20309;-66
2021/07/18 04:28:57;;;;;;;49.05;25.27;;;;;;;14.23;100.00;101899.47;5082659;28;20428;-66
2021/07/18 04:31:25;;;;;;;43.50;25.50;;;;;;;14.19;100.00;101894.56;5081922;28;20054;-66
2021/07/18 04:33:53;;;;;;;46.45;24.27;;;;;;;14.23;100.00;101890.56;5083354;28;20163;-65
2021/07/18 04:36:21;;;;;;;47.33;25.30;;;;;;;14.23;100.00;101895.94;5085997;28;20375;-66
2021/07/18 04:38:50;;;;;;;54.80;25.15;;;;;;;14.26;100.00;101893.78;5083478;28;20053;-67
2021/07/18 04:41:18;;;;;;;47.60;24.92;;;;;;;14.31;100.00;101895.97;5084341;28;20040;-66
2021/07/18 04:43:46;;;;;;;45.05;22.60;;;;;;;14.32;100.00;101900.34;5084291;28;20101;-66
2021/07/18 04:46:16;;;;;;;44.90;24.65;;;;;;;14.26;100.00;101896.47;5081529;28;20048;-66
2021/07/18 04:48:44;;;;;;;49.83;22.95;;;;;;;14.36;100.00;101901.72;5083328;28;20072;-66
2021/07/18 04:51:11;;;;;;;42.95;22.10;;;;;;;14.37;100.00;101903.38;5079163;28;20041;-66
2021/07/18 04:53:39;;;;;;;52.80;25.52;;;;;;;14.41;100.00;101899.38;5081946;28;20056;-66
2021/07/18 04:56:07;;;;;;;44.33;23.90;;;;;;;14.48;100.00;101902.25;5083352;28;20447;-66
2021/07/18 04:58:37;;;;;;;46.65;23.52;;;;;;;14.45;100.00;101898.03;5083055;28;20040;-66
2021/07/18 05:01:07;;;;;;;47.33;22.23;;;;;;;14.46;100.00;101899.72;5081448;28;20041;-66
2021/07/18 05:03:36;;;;;;;48.13;24.40;;;;;;;14.52;100.00;101903.63;5085816;28;20037;-67
2021/07/18 05:06:06;;;;;;;44.70;23.50;;;;;;;14.60;100.00;101897.41;5082115;28;20371;-66
2021/07/18 05:08:34;;;;;;;44.53;23.63;;;;;;;14.59;100.00;101903.81;5082315;28;20121;-66
2021/07/18 05:11:02;;;;;;;46.03;22.90;;;;;;;14.72;100.00;101908.75;5083853;28;20463;-66
2021/07/18 05:13:30;;;;;;;42.92;21.83;;;;;;;14.75;100.00;101917.31;5084461;28;20098;-66
2021/07/18 05:15:58;;;;;;;42.42;22.20;;;;;;;14.78;100.00;101914.28;5083334;28;20349;-67
2021/07/18 05:18:26;;;;;;;41.03;20.95;;;;;;;14.90;100.00;101908.59;5081784;28;20340;-66
2021/07/18 05:20:55;;;;;;;40.13;21.08;;;;;;;14.83;100.00;101912.97;5081668;28;20101;-66
2021/07/18 05:23:23;;;;;;;41.92;22.27;;;;;;;14.79;100.00;101907.91;5079699;28;20066;-67
2021/07/18 05:25:51;;;;;;;43.85;22.60;;;;;;;14.85;100.00;101917.19;5083908;28;20089;-66
2021/07/18 05:28:19;;;;;;;42.70;21.23;;;;;;;14.90;100.00;101913.97;5077939;28;20068;-66
2021/07/18 05:30:47;;;;;;;46.33;22.50;;;;;;;14.94;100.00;101915.34;5080428;28;20067;-66
2021/07/18 05:33:15;;;;;;;40.85;20.52;;;;;;;15.02;100.00;101922.59;5080224;28;20044;-66
2021/07/18 05:35:43;;;;;;;42.47;21.85;;;;;;;15.06;100.00;101926.66;5079187;28;20040;-66
2021/07/18 05:38:12;;;;;;;40.28;21.30;;;;;;;15.15;100.00;101923.81;5084926;28;20040;-66
2021/07/18 05:40:40;;;;;;;35.42;19.45;;;;;;;15.26;100.00;101924.47;5074678;28;20048;-65
2021/07/18 05:43:08;;;;;;;33.20;18.42;;;;;;;15.39;100.00;101930.19;5082838;28;20044;-66
2021/07/18 05:45:36;;;;;;;32.78;18.15;;;;;;;15.47;100.00;101926.66;5083777;28;20367;-65
2021/07/18 05:48:05;;;;;;;30.20;16.35;;;;;;;15.60;100.00;101918.91;5083090;28;20432;-66
2021/07/18 05:50:33;;;;;;;29.45;17.20;;;;;;;15.73;100.00;101926.47;5082592;28;20339;-66
2021/07/18 05:53:01;;;;;;;22.08;13.85;;;;;;;16.27;100.00;101925.84;5081714;28;20482;-65
2021/07/18 05:55:30;;;;;;;23.63;13.63;;;;;;;16.83;100.00;101920.38;5081756;28;20085;-65
2021/07/18 05:57:58;;;;;;;22.92;14.07;;;;;;;17.41;100.00;101922.72;5080776;28;20044;-65
2021/07/18 06:00:26;;;;;;;20.85;11.55;;;;;;;17.43;100.00;101917.97;5079378;28;20044;-66
2021/07/18 06:02:54;;;;;;;20.33;10.85;;;;;;;17.98;100.00;101917.81;5085385;28;20048;-65
2021/07/18 06:05:22;;;;;;;16.08;10.27;;;;;;;18.58;100.00;101922.16;5078611;28;20044;-65
2021/07/18 06:07:50;;;;;;;17.00;10.10;;;;;;;18.79;100.00;101916.97;5085687;28;20063;-65
2021/07/18 06:10:18;;;;;;;17.02;9.43;;;;;;;18.46;100.00;101912.00;5082851;28;20047;-65
2021/07/18 06:12:48;;;;;;;18.98;9.50;;;;;;;18.82;100.00;101920.13;5083437;28;20036;-65
2021/07/18 06:15:15;;;;;;;13.07;8.88;;;;;;;18.62;100.00;101921.78;5084163;28;20040;-65
2021/07/18 06:17:43;;;;;;;14.38;9.75;;;;;;;18.78;100.00;101915.28;5080830;28;20090;-65
2021/07/18 06:20:13;;;;;;;24.30;9.77;;;;;;;19.14;100.00;101918.00;5085537;28;20067;-65
2021/07/18 06:22:41;;;;;;;14.38;8.73;;;;;;;18.54;100.00;101920.00;5082415;28;20056;-64
2021/07/18 06:25:10;;;;;;;18.70;8.65;;;;;;;19.43;100.00;101919.72;5080468;28;20431;-66
2021/07/18 06:27:40;;;;;;;17.30;9.32;;;;;;;19.08;100.00;101921.44;5082937;28;20470;-64
2021/07/18 06:30:11;;;;;;;15.85;8.95;;;;;;;18.66;100.00;101926.59;5079863;28;20047;-64
2021/07/18 06:32:40;;;;;;;14.77;8.68;;;;;;;18.53;100.00;101924.56;5082955;28;20059;-64
2021/07/18 06:35:10;;;;;;;14.38;8.98;;;;;;;19.17;100.00;101920.31;5083995;28;20040;-64
2021/07/18 06:37:38;;;;;;;14.13;7.88;;;;;;;20.13;100.00;101924.41;5078931;28;20433;-64
2021/07/18 06:40:07;;;;;;;11.02;7.45;;;;;;;20.84;100.00;101917.84;5084322;28;20044;-64
2021/07/18 06:42:34;;;;;;;14.02;7.85;;;;;;;20.47;100.00;101914.56;5083539;28;20040;-65
2021/07/18 06:45:03;;;;;;;14.65;7.50;;;;;;;19.80;100.00;101916.06;5085598;28;20324;-65
2021/07/18 06:47:32;;;;;;;13.35;7.65;;;;;;;20.19;100.00;101912.75;5088142;28;20054;-64
2021/07/18 06:50:00;;;;;;;12.35;7.93;;;;;;;19.86;100.00;101913.41;5081056;28;20047;-64
2021/07/18 06:52:28;;;;;;;10.90;6.85;;;;;;;20.88;100.00;101921.81;5085897;28;20036;-64
2021/07/18 06:54:56;;;;;;;11.50;6.80;;;;;;;21.37;100.00;101914.34;5084393;28;20056;-64
2021/07/18 06:57:24;;;;;;;11.05;6.20;;;;;;;20.58;100.00;101913.97;5087851;28;20036;-65
2021/07/18 06:59:52;;;;;;;10.15;6.13;;;;;;;22.49;100.00;101914.38;5086720;28;20040;-64
2021/07/18 07:02:20;;;;;;;8.77;5.50;;;;;;;23.34;100.00;101902.34;5086208;28;20036;-64
2021/07/18 07:04:49;;;;;;;10.73;5.00;;;;;;;22.78;100.00;101906.72;5090059;28;20044;-64
2021/07/18 07:07:17;;;;;;;10.75;5.25;;;;;;;23.36;100.00;101902.13;5084385;28;20081;-64
2021/07/18 07:09:45;;;;;;;7.25;4.45;;;;;;;23.88;100.00;101897.25;5083897;28;20051;-65
2021/07/18 07:12:13;;;;;;;8.38;4.78;;;;;;;24.13;100.00;101903.69;5087548;28;20387;-66
2021/07/18 07:14:41;;;;;;;8.60;5.05;;;;;;;24.47;100.00;101898.66;5090527;28;20044;-65
2021/07/18 07:17:09;;;;;;;7.20;4.43;;;;;;;22.83;100.00;101895.97;5090961;28;20040;-65
2021/07/18 07:19:37;;;;;;;7.82;4.10;;;;;;;24.18;100.00;101896.50;5083698;28;20309;-65
2021/07/18 07:22:07;;;;;;;6.45;4.00;;;;;;;24.40;100.00;101888.66;5084954;28;20473;-65
2021/07/18 07:24:35;;;;;;;7.60;4.40;;;;;;;24.73;100.00;101884.66;5085846;28;20101;-64
2021/07/18 07:27:03;;;;;;;7.18;3.40;;;;;;;24.33;100.00;101892.56;5088456;28;20043;-65
2021/07/18 07:29:31;;;;;;;5.95;3.80;;;;;;;25.29;100.00;101892.66;5084480;28;20040;-66
2021/07/18 07:31:59;;;;;;;6.65;3.70;;;;;;;24.65;100.00;101887.75;5080739;28;20428;-66
2021/07/18 07:34:27;;;;;;;6.55;3.53;;;;;;;24.64;100.00;101891.53;5088563;28;21048;-66
2021/07/18 07:36:55;;;;;;;8.57;3.60;;;;;;;25.85;100.00;101892.31;5084631;28;20040;-65
2021/07/18 07:39:24;;;;;;;4.50;3.13;;;;;;;24.71;100.00;101886.00;5089719;28;20044;-65
2021/07/18 07:41:52;;;;;;;6.15;3.17;;;;;;;24.45;100.00;101893.44;5088102;28;20040;-66
2021/07/18 07:44:20;;;;;;;7.50;3.33;;;;;;;22.73;100.00;101895.63;5087851;28;20051;-65
2021/07/18 07:46:48;;;;;;;5.72;2.83;;;;;;;23.79;100.00;101887.69;5087419;28;20432;-64
2021/07/18 07:49:16;;;;;;;6.63;3.22;;;;;;;24.35;100.00;101891.25;5084731;28;20044;-64
2021/07/18 07:51:44;;;;;;;5.30;3.25;;;;;;;23.93;100.00;101887.56;5082009;28;20037;-65
2021/07/18 07:54:12;;;;;;;5.03;3.53;;;;;;;24.93;100.00;101886.28;5085236;28;20051;-65
2021/07/18 07:56:41;;;;;;;4.28;2.75;;;;;;;24.97;100.00;101886.66;5081469;28;20048;-65
2021/07/18 07:59:09;;;;;;;5.30;2.85;;;;;;;24.72;100.00;101884.91;5088804;28;20337;-65
2021/07/18 08:01:37;;;;;;;5.00;3.35;;;;;;;26.34;100.00;101884.63;5085930;28;20451;-65
2021/07/18 08:04:06;;;;;;;3.75;2.40;;;;;;;25.84;100.00;101877.78;5085102;28;20105;-66
2021/07/18 08:06:36;;;;;;;7.38;2.60;;;;;;;26.72;100.00;101876.84;5084054;28;20054;-65
2021/07/18 08:09:05;;;;;;;3.83;2.50;;;;;;;26.03;100.00;101880.44;5082366;28;20114;-65
2021/07/18 08:11:33;;;;;;;4.72;2.45;;;;;;;25.86;100.00;101877.56;5083978;28;20066;-65
2021/07/18 08:14:02;;;;;;;4.78;2.00;;;;;;;24.54;100.00;101872.94;5082281;28;20068;-65
2021/07/18 08:16:30;;;;;;;4.40;1.80;;;;;;;26.22;100.00;101870.94;5084162;28;20054;-64
2021/07/18 08:18:58;;;;;;;3.25;1.83;;;;;;;25.46;100.00;101872.81;5086377;28;20051;-66
2021/07/18 08:21:26;;;;;;;2.25;1.60;;;;;;;26.23;100.00;101872.63;5084772;28;20048;-65
2021/07/18 08:24:07;;;;;;;3.60;1.85;;;;;;;25.52;100.00;101871.91;5086687;28;20321;-65
2021/07/18 08:26:35;;;;;;;2.80;1.50;;;;;;;26.63;100.00;101881.88;5083599;28;20423;-66
2021/07/18 08:29:05;;;;;;;6.43;1.88;;;;;;;26.22;100.00;101881.06;5085435;28;20041;-65
2021/07/18 08:31:33;;;;;;;4.25;1.73;;;;;;;27.36;100.00;101868.38;5083000;28;20040;-65
2021/07/18 08:34:01;;;;;;;3.28;2.00;;;;;;;27.62;100.00;101871.47;5082069;28;20106;-65
2021/07/18 08:36:29;;;;;;;3.03;2.03;;;;;;;28.13;100.00;101869.44;5084274;28;20044;-65
2021/07/18 08:38:57;;;;;;;2.42;1.70;;;;;;;28.10;100.00;101867.19;5085398;28;20125;-65
2021/07/18 08:41:28;;;;;;;3.30;1.60;;;;;;;26.43;100.00;101866.72;5083203;28;20362;-66
2021/07/18 08:43:56;;;;;;;3.75;2.78;;;;;;;25.14;100.00;101862.22;5081323;28;20040;-64
2021/07/18 08:46:25;;;;;;;3.40;1.65;;;;;;;24.41;100.00;101865.78;5082257;28;20040;-65
2021/07/18 08:48:56;;;;;;;3.38;1.60;;;;;;;25.59;100.00;101862.50;5079198;28;20059;-65
2021/07/18 08:51:24;;;;;;;4.07;1.65;;;;;;;27.12;100.00;101859.47;5078777;28;20579;-65
2021/07/18 08:53:54;;;;;;;2.42;1.70;;;;;;;27.39;100.00;101858.78;5078525;28;20536;-65
2021/07/18 08:56:23;;;;;;;2.90;1.70;;;;;;;28.11;100.00;101857.88;5080092;28;20044;-65
2021/07/18 08:58:51;;;;;;;2.83;1.65;;;;;;;28.68;100.00;101855.78;5084479;28;20048;-65
2021/07/18 09:01:19;;;;;;;2.95;1.80;;;;;;;27.10;100.00;101861.63;5080669;28;20036;-66
2021/07/18 09:03:49;;;;;;;6.13;2.25;;;;;;;25.90;100.00;101856.84;5082905;28;20072;-66
2021/07/18 09:06:17;;;;;;;6.00;2.50;;;;;;;24.49;100.00;101858.31;5083483;28;20039;-66
2021/07/18 09:08:46;;;;;;;2.30;1.90;;;;;;;25.37;100.00;101864.97;5083505;28;20043;-64
2021/07/18 09:11:19;;;;;;;2.50;1.90;;;;;;;25.99;100.00;101860.06;5084311;28;20064;-64
2021/07/18 09:14:05;;;;;;;2.88;1.65;;;;;;;25.18;100.00;101855.22;5081630;28;20453;-64
2021/07/18 09:16:35;;;;;;;5.78;2.40;;;;;;;24.73;100.00;101853.81;5080973;28;20036;-65
2021/07/18 09:19:20;;;;;;;5.50;2.00;;;;;;;25.95;100.00;101854.22;5084591;28;20036;-65
2021/07/18 09:21:53;;;;;;;3.33;1.80;;;;;;;27.60;100.00;101855.28;5082174;28;20036;-64
2021/07/18 09:24:22;;;;;;;6.57;1.88;;;;;;;28.00;100.00;101850.63;5084103;28;20047;-64
2021/07/18 09:27:11;;;;;;;3.75;1.83;;;;;;;27.11;100.00;101853.13;5085312;28;20051;-64
2021/07/18 09:29:41;;;;;;;3.78;1.92;;;;;;;27.54;100.00;101850.78;5079956;28;20097;-64
2021/07/18 09:32:11;;;;;;;5.07;2.30;;;;;;;25.68;100.00;101853.91;5080340;28;20032;-64
2021/07/18 09:34:41;;;;;;;3.38;1.92;;;;;;;26.67;100.00;101855.66;5079436;28;20036;-64
2021/07/18 09:37:16;;;;;;;4.25;2.00;;;;;;;28.15;100.00;101850.81;5085716;28;20145;-64
2021/07/18 09:39:53;;;;;;;3.33;2.20;;;;;;;25.76;100.00;101850.81;5082771;28;20595;-64
2021/07/18 09:42:45;;;;;;;3.78;2.22;;;;;;;25.67;100.00;101841.31;5079396;28;20386;-64
2021/07/18 09:45:18;;;;;;;3.08;2.45;;;;;;;26.98;100.00;101851.56;5074684;28;20455;-64
2021/07/18 09:47:58;;;;;;;7.13;2.47;;;;;;;26.51;100.00;101851.81;5082625;28;20032;-64
2021/07/18 09:50:30;;;;;;;5.60;2.45;;;;;;;25.72;100.00;101855.94;5079722;28;20050;-64
2021/07/18 09:53:09;;;;;;;4.15;2.50;;;;;;;25.56;100.00;101851.19;5076884;28;20041;-64
2021/07/18 09:55:38;;;;;;;2.28;2.00;;;;;;;25.41;100.00;101838.81;5080815;28;20332;-65
2021/07/18 09:58:06;;;;;;;4.95;2.55;;;;;;;25.22;100.00;101845.44;5080420;28;20049;-64
2021/07/18 10:00:40;;;;;;;3.05;2.10;;;;;;;26.28;100.00;101841.78;5079784;28;20051;-64
2021/07/18 10:03:18;;;;;;;2.92;2.20;;;;;;;27.32;100.00;101842.50;5082052;28;20044;-65
2021/07/18 10:05:47;;;;;;;5.22;2.80;;;;;;;28.36;100.00;101845.53;5082115;28;20055;-64
2021/07/18 10:08:15;;;;;;;4.40;2.83;;;;;;;28.35;100.00;101841.09;5083467;28;20362;-64
2021/07/18 10:10:45;;;;;;;4.00;2.20;;;;;;;26.98;100.00;101837.84;5078780;28;20097;-64
2021/07/18 10:13:13;;;;;;;6.28;2.92;;;;;;;25.44;100.00;101843.81;5077581;28;20032;-64
2021/07/18 10:15:41;;;;;;;3.88;2.50;;;;;;;25.84;100.00;101844.13;5077655;28;20071;-64
2021/07/18 10:18:09;;;;;;;3.67;2.20;;;;;;;26.86;100.00;101841.75;5081684;28;20218;-64
2021/07/18 10:20:37;;;;;;;4.00;2.53;;;;;;;25.69;100.00;101840.00;5083035;28;20074;-64
2021/07/18 10:23:07;;;;;;;4.28;2.72;;;;;;;25.93;100.00;101829.84;5081994;28;20040;-64
2021/07/18 10:25:35;;;;;;;6.30;3.28;;;;;;;25.51;100.00;101835.50;5082763;28;20041;-64
2021/07/18 10:28:04;;;;;;;5.10;2.65;;;;;;;25.96;100.00;101839.47;5082893;28;20044;-64
2021/07/18 10:30:34;;;;;;;4.93;2.90;;;;;;;27.07;100.00;101831.97;5082216;28;20273;-64
2021/07/18 10:33:02;;;;;;;6.43;2.92;;;;;;;27.36;100.00;101835.47;5085440;28;20063;-64
2021/07/18 10:35:31;;;;;;;4.18;3.10;;;;;;;26.46;100.00;101827.06;5081975;28;20431;-64
2021/07/18 10:38:16;;;;;;;6.53;3.45;;;;;;;26.68;100.00;101832.66;5086575;28;20039;-64
2021/07/18 10:40:52;;;;;;;8.48;3.40;;;;;;;26.93;100.00;101834.19;5085892;28;20048;-64
2021/07/18 10:43:50;;;;;;;8.23;3.53;;;;;;;27.50;100.00;101827.69;5084156;28;20048;-64
2021/07/18 10:46:54;;;;;;;7.05;4.53;;;;;;;26.11;100.00;101826.16;5024663;28;20326;-65
2021/07/18 10:49:58;;;;;;;8.52;4.40;;;;;;;26.98;100.00;101824.16;5081215;28;20048;-64
2021/07/18 10:52:31;;;;;;;10.23;5.13;;;;;;;26.43;100.00;101828.38;5017653;28;20038;-65
2021/07/18 10:55:01;;;;;;;9.63;5.80;;;;;;;26.76;100.00;101826.78;5075450;28;20063;-64
2021/07/18 10:57:32;;;;;;;10.48;5.25;;;;;;;28.68;100.00;101822.81;5086192;28;20082;-64
2021/07/18 11:00:23;;;;;;;9.02;5.43;;;;;;;29.95;100.00;101817.56;5083438;28;20044;-64
2021/07/18 11:03:07;;;;;;;8.43;4.80;;;;;;;28.92;100.00;101814.19;5083168;28;20424;-64
2021/07/18 11:05:43;;;;;;;10.40;5.63;;;;;;;27.31;100.00;101816.16;5083489;28;20044;-65
2021/07/18 11:08:12;;;;;;;9.68;5.05;;;;;;;26.87;100.00;101816.84;5088470;28;20048;-64
2021/07/18 11:10:52;;;;;;;10.93;5.30;;;;;;;29.32;100.00;101807.34;5082328;28;20063;-65
2021/07/18 11:13:20;;;;;;;9.93;5.53;;;;;;;29.36;100.00;101803.81;5083503;28;20039;-65
2021/07/18 11:15:49;;;;;;;8.48;6.60;;;;;;;26.40;100.00;101804.22;5087638;28;20040;-65
2021/07/18 11:18:18;;;;;;;12.18;6.07;;;;;;;26.20;100.00;101814.81;5082303;28;20040;-64
2021/07/18 11:20:57;;;;;;;11.93;6.53;;;;;;;26.66;100.00;101806.59;5082103;28;20043;-65